Flight Track Log - Related Links

Times and Time Zones

All times are in EDT time to prevent confusion due to time zone crossing. See the GJS3707 flight status page for this flight to view local times or setup timezone preferences in your user account.

Time Position Orientation Groundspeed Altitude Reporting Facility
EDT Latitude Longitude Course Direction KTS MPH feet Rate Location/Type
Thu 03:22:47 PM 43.5864 -116.2978 65° Northeast 195 224 4,800  Level Salt Lake Center
Thu 03:23:49 PM 43.6469 -116.2967 North 229 264 6,800 1,935 Climbing Salt Lake Center
Thu 03:24:51 PM 43.6789 -116.2178 61° Northeast 262 302 8,800 2,146 Climbing Salt Lake Center
Thu 03:25:52 PM 43.6928 -116.1022 81° East 274 315 11,200 2,049 Climbing Salt Lake Center
Thu 03:26:54 PM 43.7053 -115.9947 81° East 293 337 13,000 1,597 Climbing Salt Lake Center
Thu 03:27:56 PM 43.7194 -115.8783 80° East 319 367 14,500 1,452 Climbing Salt Lake Center
Thu 03:28:00 PM 43.6869 -115.2727 65° Northeast  Level FlightAware Approximate
Thu 03:28:58 PM 43.7367 -115.7281 81° East 349 402 16,000  Level Salt Lake Center
Thu 03:29:59 PM 43.7531 -115.5897 81° East 374 430 17,200 1,317 Climbing Salt Lake Center
Thu 03:31:01 PM 43.7731 -115.4164 81° East 405 466 18,700 1,403 Climbing Salt Lake Center
Thu 03:32:03 PM 43.7892 -115.2639 82° East 418 481 20,100 1,500 Climbing Salt Lake Center
Thu 03:33:05 PM 43.8094 -115.0844 81° East 424 488 21,800 1,512 Climbing Salt Lake Center
Thu 03:34:06 PM 43.8272 -114.9300 81° East 426 490 23,200 1,220 Climbing Salt Lake Center
Thu 03:35:08 PM 43.8478 -114.7456 81° East 436 502 24,300 1,016 Climbing Salt Lake Center
Thu 03:36:10 PM 43.8661 -114.5833 81° East 447 514 25,300 1,024 Climbing Salt Lake Center
Thu 03:37:11 PM 43.8856 -114.3886 82° East 457 526 26,400 1,024 Climbing Salt Lake Center
Thu 03:38:13 PM 43.9039 -114.2194 81° East 465 535 27,400 968 Climbing Salt Lake Center
Thu 03:39:15 PM 43.9203 -114.0486 82° East 467 537 28,400 1,024 Climbing Salt Lake Center
Thu 03:40:16 PM 43.9394 -113.8525 82° East 470 541 29,500 927 Climbing Salt Lake Center
Thu 03:41:18 PM 43.9564 -113.6786 82° East 474 545 30,300 774 Climbing Salt Lake Center
Thu 03:42:20 PM 43.9742 -113.4744 83° East 478 550 31,100 746 Climbing Salt Lake Center
Thu 03:44:23 PM 44.0100 -113.0892 83° East 487 560 32,600 714 Climbing Salt Lake Center
Thu 03:45:25 PM 44.0275 -112.9089 82° East 493 567 33,300 732 Climbing Salt Lake Center
Thu 03:46:26 PM 44.0467 -112.6986 83° East 492 566 34,100 683 Climbing Salt Lake Center
Thu 03:47:28 PM 44.0644 -112.5172 82° East 495 570 34,700 488 Climbing Salt Lake Center
Thu 03:48:29 PM 44.0775 -112.3356 84° East 495 570 35,100 146 Climbing Salt Lake Center
Thu 03:49:31 PM 44.0750 -112.1175 91° East 509 586 35,000  Descending Salt Lake Center
Thu 03:50:32 PM 44.0503 -111.9367 101° East 502 578 35,100  Climbing Salt Lake Center
Thu 03:51:34 PM 44.0178 -111.7192 102° East 517 595 35,000 -49 Descending Salt Lake Center
Thu 03:52:35 PM 43.9906 -111.5333 101° East 517 595 35,000 49 Level Salt Lake Center
Thu 03:53:37 PM 43.9592 -111.3186 101° East 513 590 35,100  Climbing Salt Lake Center
Thu 03:54:38 PM 43.9314 -111.1344 102° East 513 590 35,000 -49 Descending Salt Lake Center
Thu 03:55:40 PM 43.8994 -110.9206 102° East 510 587 35,000 48 Level Salt Lake Center
Thu 03:56:42 PM 43.8708 -110.7353 102° East 511 588 35,100  Climbing Salt Lake Center
Thu 03:57:43 PM 43.8414 -110.5528 103° East 508 585 35,000 -49 Descending Salt Lake Center
Thu 03:58:45 PM 43.8083 -110.3406 102° East 507 583 35,000  Level Salt Lake Center
Thu 03:59:46 PM 43.7792 -110.1594 103° East 505 581 35,000  Level Salt Lake Center
Thu 04:00:48 PM 43.7442 -109.9500 103° East 501 577 35,000  Level Salt Lake Center
Thu 04:01:50 PM 43.7150 -109.7703 103° East 497 572 35,000  Level Salt Lake Center
Thu 04:02:51 PM 43.6797 -109.5600 103° East 503 579 35,000  Level Salt Lake Center
Thu 04:03:53 PM 43.6511 -109.3858 103° East 502 578 35,000  Level Salt Lake Center
Thu 04:04:54 PM 43.6153 -109.1767 103° East 504 580 35,000  Level Salt Lake Center
Thu 04:05:56 PM 43.5850 -108.9989 103° East 501 577 35,000  Level Salt Lake Center
Thu 04:06:58 PM 43.5492 -108.7900 103° East 501 577 35,000  Level Salt Lake Center
Thu 04:07:59 PM 43.5178 -108.6119 104° East 501 577 35,000  Level Salt Lake Center
Thu 04:09:01 PM 43.4856 -108.4344 104° East 501 577 35,000  Level Salt Lake Center
Thu 04:10:03 PM 43.4417 -108.2308 106° East 500 575 35,000  Level Salt Lake Center
Thu 04:11:04 PM 43.3900 -108.0633 113° Southeast 500 575 35,000  Level Salt Lake Center
Thu 04:12:06 PM 43.3317 -107.8675 112° Southeast 498 573 35,000  Level Salt Lake Center
Thu 04:13:08 PM 43.2817 -107.7008 112° Southeast 496 571 35,000  Level Salt Lake Center
Thu 04:14:09 PM 43.2225 -107.5072 113° Southeast 494 568 35,000  Level Salt Lake Center
Thu 04:15:11 PM 43.1722 -107.3411 112° Southeast 495 570 35,000  Level Salt Lake Center
Thu 04:15:49 PM 43.1414 -107.2383 112° Southeast 493 567 35,000  Level Denver Center
Thu 04:16:51 PM 43.0811 -107.0450 113° Southeast 496 571 35,000  Level Denver Center
Thu 04:17:53 PM 43.0292 -106.8789 113° Southeast 497 572 35,000  Level Denver Center
Thu 04:18:55 PM 42.9694 -106.6869 113° Southeast 494 568 35,000  Level Denver Center
Thu 04:19:57 PM 42.9167 -106.5233 114° Southeast 494 568 35,000  Level Denver Center
Thu 04:20:59 PM 42.8564 -106.3328 113° Southeast 490 564 35,000 48 Level Denver Center
Thu 04:22:01 PM 42.8044 -106.1714 114° Southeast 486 559 35,100  Climbing Denver Center
Thu 04:23:03 PM 42.7428 -105.9811 114° Southeast 492 566 35,000 -48 Descending Denver Center
Thu 04:24:05 PM 42.6906 -105.8214 114° Southeast 485 558 35,000 48 Level Denver Center
Thu 04:25:07 PM 42.6286 -105.6339 114° Southeast 487 560 35,100  Climbing Denver Center
Thu 04:26:09 PM 42.6161 -105.4636 96° East 478 550 35,000  Descending Denver Center
Thu 04:27:11 PM 42.6164 -105.2942 90° East 471 542 35,100  Climbing Denver Center
Thu 04:28:13 PM 42.5894 -105.1022 101° East 465 535 35,000 -48 Descending Denver Center
Thu 04:29:15 PM 42.5894 -104.9389 90° East 471 542 35,000  Level Denver Center
Thu 04:30:17 PM 42.6494 -104.7664 65° Northeast 454 522 35,000  Level Denver Center
Thu 04:31:19 PM 42.7064 -104.6122 63° Northeast 459 528 35,000 48 Level Denver Center
Thu 04:32:21 PM 42.7644 -104.4581 63° Northeast 467 537 35,100  Climbing Denver Center
Thu 04:33:22 PM 42.8172 -104.3047 65° Northeast 467 537 35,000 -49 Descending Denver Center
Thu 04:34:24 PM 42.8375 -104.1136 82° East 458 527 35,000  Level Denver Center
Thu 04:35:26 PM 42.8192 -103.9125 97° East 477 549 35,000  Level Denver Center
Thu 04:36:28 PM 42.7797 -103.7439 108° East 485 558 35,000  Level Denver Center
Thu 04:37:30 PM 42.7347 -103.5461 107° East 489 563 35,000 48 Level Denver Center
Thu 04:38:32 PM 42.6950 -103.3783 108° East 488 562 35,100 48 Climbing Denver Center
Thu 04:39:34 PM 42.6553 -103.2097 108° East 489 563 35,100 -49 Level Denver Center
Thu 04:40:35 PM 42.6075 -103.0161 108° East 485 558 35,000 -49 Descending Denver Center
Thu 04:41:37 PM 42.5692 -102.8519 108° East 479 551 35,000  Level Denver Center
Thu 04:42:39 PM 42.5233 -102.6608 108° East 476 548 35,000  Level Denver Center
Thu 04:43:41 PM 42.4842 -102.5006 108° East 471 542 35,000  Level Denver Center
Thu 04:44:43 PM 42.4378 -102.3117 108° East 473 544 35,000  Level Denver Center
Thu 04:45:44 PM 42.4047 -102.1783 109° East 469 540 35,000  Level Denver Center
Thu 04:46:46 PM 42.3550 -101.9731 108° East 449 517 35,000  Level Denver Center
Thu 04:47:48 PM 42.3192 -101.8325 109° East 451 519 35,000 48 Level Denver Center
Thu 04:48:50 PM 42.2736 -101.6506 109° East 459 528 35,100  Climbing Denver Center
Thu 04:49:52 PM 42.2333 -101.4942 109° East 460 529 35,000 -48 Descending Denver Center
Thu 04:50:54 PM 42.1875 -101.3122 109° East 458 527 35,000  Level Denver Center
Thu 04:52:07 PM 42.1461 -101.1592 110° East 456 525 35,000  Level Denver Center
Thu 04:53:09 PM 42.0933 -100.9531 109° East 455 524 35,000 48 Level Denver Center
Thu 04:54:11 PM 42.0528 -100.8006 110° East 452 520 35,100  Climbing Denver Center
Thu 04:55:25 PM 42.0053 -100.6225 110° East 453 521 35,000 -44 Descending Denver Center
Thu 04:56:28 PM 41.9564 -100.4375 110° East 466 536 35,000  Level Denver Center
Thu 04:56:43 PM 41.9389 -100.3728 110° East 466 536 35,000  Level Minneapolis Center
Thu 04:57:29 PM 41.9067 -100.2522 110° East 470 541 35,000 56 Level Denver Center
Thu 04:58:31 PM 41.8628 -100.0900 110° East 478 550 35,100  Climbing Denver Center
Thu 04:59:33 PM 41.8119 -99.9031 110° East 478 550 35,000 -49 Descending Denver Center
Thu 05:00:34 PM 41.7756 -99.7667 110° East 483 556 35,000  Level Denver Center
Thu 05:01:49 PM 41.7203 -99.5675 110° East 477 549 35,000  Level Denver Center
Thu 05:02:51 PM 41.6658 -99.3689 110° East 474 545 35,000  Level Denver Center
Thu 05:03:53 PM 41.6186 -99.2025 111° Southeast 476 548 35,000  Level Denver Center
Thu 05:04:59 PM 41.5644 -99.0056 110° East 471 542 35,000  Level Minneapolis Center
Thu 05:06:01 PM 41.5217 -98.8625 112° Southeast 471 542 35,000  Level Minneapolis Center
Thu 05:07:04 PM 41.4656 -98.6686 111° Southeast 469 540 35,000  Level Minneapolis Center
Thu 05:08:06 PM 41.4200 -98.5069 111° Southeast 467 537 35,000  Level Minneapolis Center
Thu 05:09:08 PM 41.4094 -98.3383 95° East 480 552 35,000  Level Minneapolis Center
Thu 05:10:10 PM 41.4447 -98.1664 75° East 480 552 35,000  Level Minneapolis Center
Thu 05:11:12 PM 41.5072 -98.0000 63° Northeast 484 557 35,000  Level Minneapolis Center
Thu 05:12:14 PM 41.5353 -97.8256 78° East 485 558 35,000  Level Minneapolis Center
Thu 05:13:16 PM 41.5686 -97.6178 78° East 479 551 35,000  Level Minneapolis Center
Thu 05:14:18 PM 41.5928 -97.4428 79° East 479 551 35,000  Level Minneapolis Center
Thu 05:15:32 PM 41.5733 -97.2692 98° East 476 548 35,000  Level Minneapolis Center
Thu 05:16:35 PM 41.5561 -97.0592 96° East 476 548 35,000  Level Minneapolis Center
Thu 05:17:37 PM 41.5444 -96.8828 95° East 477 549 35,000  Level Minneapolis Center
Thu 05:18:39 PM 41.5322 -96.7061 95° East 478 550 35,000  Level Minneapolis Center
Thu 05:19:41 PM 41.5172 -96.4972 95° East 473 544 35,000  Level Minneapolis Center
Thu 05:20:43 PM 41.5056 -96.3261 95° East 475 547 35,000  Level Minneapolis Center
Thu 05:21:45 PM 41.4911 -96.1492 96° East 478 550 35,000  Level Minneapolis Center
Thu 05:22:47 PM 41.4803 -95.9747 95° East 475 547 35,000  Level Minneapolis Center
Thu 05:24:02 PM 41.4669 -95.7639 95° East 475 547 35,000  Level Minneapolis Center
Thu 05:25:04 PM 41.4536 -95.5714 95° East 475 547 35,000  Level Minneapolis Center
Thu 05:26:06 PM 41.4406 -95.3969 96° East 473 544 35,000  Level Minneapolis Center
Thu 05:27:08 PM 41.4478 -95.2242 87° East 472 543 35,000  Level Minneapolis Center
Thu 05:28:10 PM 41.4914 -95.0236 74° East 470 541 35,000  Level Minneapolis Center
Thu 05:29:12 PM 41.5308 -94.8553 73° East 474 545 35,000  Level Minneapolis Center
Thu 05:30:14 PM 41.5614 -94.7211 73° East 473 544 35,000  Level Minneapolis Center
Thu 05:31:16 PM 41.6072 -94.5200 73° East 473 544 35,000  Level Minneapolis Center
Thu 05:32:18 PM 41.6453 -94.3525 73° East 472 543 35,000  Level Minneapolis Center
Thu 05:33:20 PM 41.6839 -94.1836 73° East 474 545 35,000  Level Minneapolis Center
Thu 05:34:22 PM 41.7136 -94.0483 74° East 474 545 35,000  Level Minneapolis Center
Thu 05:35:24 PM 41.7597 -93.8417 73° East 474 545 35,000  Level Minneapolis Center
Thu 05:36:27 PM 41.8050 -93.6381 73° East 478 550 35,000  Level Minneapolis Center
Thu 05:37:29 PM 41.8419 -93.4683 74° East 477 549 35,000  Level Minneapolis Center
Thu 05:38:31 PM 41.8783 -93.2989 74° East 477 549 35,000  Level Minneapolis Center
Thu 05:39:33 PM 41.9150 -93.1297 74° East 475 547 35,000  Level Minneapolis Center
Thu 05:40:35 PM 41.9522 -92.9522 74° East 474 545 35,000  Level Minneapolis Center
Thu 05:41:37 PM 41.9878 -92.7822 74° East 477 549 35,000  Level Minneapolis Center
Thu 05:42:39 PM 42.0306 -92.5803 74° East 475 547 35,000 -140 Level Minneapolis Center
Thu 05:43:03 PM 42.0442 -92.5094 75° East 478 550 34,800 -837 Descending Chicago Center
Thu 05:44:05 PM 42.0800 -92.3403 74° East 477 549 33,800 -968 Descending Chicago Center
Thu 05:45:07 PM 42.1144 -92.1694 75° East 478 550 32,800 -968 Descending Chicago Center
Thu 05:46:09 PM 42.1486 -91.9981 75° East 480 552 31,800 -871 Descending Chicago Center
Thu 05:47:11 PM 42.1908 -91.7936 74° East 480 552 31,000 -387 Descending Chicago Center
Thu 05:48:13 PM 42.2244 -91.6239 75° East 479 551 31,000  Level Chicago Center
Thu 05:49:16 PM 42.2583 -91.4506 75° East 483 556 31,000 -144 Level Chicago Center
Thu 05:50:18 PM 42.2928 -91.2775 75° East 487 560 30,700 -726 Descending Chicago Center
Thu 05:51:20 PM 42.3317 -91.0733 75° East 475 547 29,500 -1,065 Descending Chicago Center
Thu 05:52:22 PM 42.3644 -90.9019 75° East 476 548 28,500 -919 Descending Chicago Center
Thu 05:53:24 PM 42.3975 -90.7306 75° East 477 549 27,600 -919 Descending Chicago Center
Thu 05:54:26 PM 42.4153 -90.5597 82° East 468 539 26,600 -1,065 Descending Chicago Center
Thu 05:55:28 PM 42.4369 -90.3528 82° East 469 540 25,400 -1,065 Descending Chicago Center
Thu 05:56:30 PM 42.4506 -90.1825 84° East 463 533 24,400 -1,104 Descending Chicago Center
Thu 05:57:33 PM 42.4419 -90.0128 94° East 459 528 23,100 -1,440 Descending Chicago Center
Thu 05:58:35 PM 42.4356 -89.8253 93° East 443 510 21,400 -1,452 Descending Chicago Center
Thu 05:59:37 PM 42.4283 -89.6664 93° East 428 493 20,100 -1,306 Descending Chicago Center
Thu 06:00:39 PM 42.4222 -89.5097 93° East 421 484 18,700 -1,403 Descending Chicago Center
Thu 06:01:41 PM 42.4150 -89.3569 94° East 411 473 17,200 -1,306 Descending Chicago Center
Thu 06:02:43 PM 42.4094 -89.2103 93° East 393 452 16,000 -1,548 Descending Chicago Center
Thu 06:03:45 PM 42.4011 -89.0419 94° East 386 444 14,000 -1,694 Descending Chicago Center
Thu 06:04:47 PM 42.3947 -88.9008 93° East 378 435 12,500 -1,403 Descending Chicago Center
Thu 06:05:49 PM 42.3881 -88.7631 94° East 372 428 11,100 -1,210 Descending Chicago Center
Thu 06:06:51 PM 42.3822 -88.6450 94° East 324 373 10,000 -968 Descending Chicago Center
Thu 06:07:53 PM 42.3769 -88.5378 94° East 296 341 9,100 -816 Descending Chicago Center
Thu 06:08:56 PM 42.3286 -88.4375 123° Southeast 276 318 8,300 -816 Descending Chicago Center
Thu 06:09:58 PM 42.2872 -88.3594 126° Southeast 282 325 7,400 -629 Descending Chicago Center
Thu 06:11:00 PM 42.2428 -88.2775 126° Southeast 273 314 7,000 -532 Descending Chicago Center
Thu 06:12:02 PM 42.1956 -88.1842 124° Southeast 251 289 6,300 -1,016 Descending Chicago Center
Thu 06:13:04 PM 42.1603 -88.1189 126° Southeast 226 260 4,900 -1,258 Descending Chicago Center
Thu 06:14:06 PM 42.1142 -88.0728 143° Southeast 211 243 3,700 -1,065 Descending Chicago Center
Thu 06:15:08 PM 42.0731 -88.0281 141° Southeast 201 231 2,700 -774 Descending Chicago Center
Thu 06:16:10 PM 42.0364 -87.9850 139° Southeast 188 216 2,100 -768 Descending Chicago Center
Thu 06:17:13 PM 42.0000 -87.9500 144° Southeast 134 154 1,100 -952 Descending Chicago TRACON
Thu 06:19:00 PM 41.9817 -87.9067 143° Southeast  Level Estimated

Login

Don't have an account? Register now (free) for customized features, flight alerts, and more!